createdAt,value
2022-08-30T00:02:44.842Z,22.55
2022-08-30T00:05:47.426Z,22.49
2022-08-30T00:08:50.018Z,22.52
2022-08-30T00:11:52.411Z,22.51
2022-08-30T00:14:54.557Z,22.59
2022-08-30T00:17:56.966Z,22.53
2022-08-30T00:20:59.255Z,22.54
2022-08-30T00:24:01.867Z,22.62
2022-08-30T00:27:04.149Z,22.58
2022-08-30T00:30:07.347Z,22.51
2022-08-30T00:33:10.494Z,22.50
2022-08-30T00:36:12.880Z,22.41
2022-08-30T00:39:14.998Z,22.34
2022-08-30T00:42:19.782Z,22.36
2022-08-30T00:45:26.149Z,22.32
2022-08-30T00:48:28.624Z,22.26
2022-08-30T00:51:31.766Z,22.24
2022-08-30T00:54:36.664Z,22.18
2022-08-30T00:57:39.261Z,22.16
2022-08-30T01:00:41.758Z,22.12
2022-08-30T01:03:45.167Z,22.02
2022-08-30T01:06:48.057Z,21.96
2022-08-30T01:09:50.486Z,21.97
2022-08-30T01:12:52.920Z,21.90
2022-08-30T01:15:55.960Z,21.87
2022-08-30T01:18:59.518Z,21.84
2022-08-30T01:22:08.603Z,21.84
2022-08-30T01:25:12.530Z,21.84
2022-08-30T01:28:21.613Z,21.76
2022-08-30T01:31:24.088Z,21.80
2022-08-30T01:34:26.273Z,21.81
2022-08-30T01:37:31.605Z,21.80
2022-08-30T01:40:33.811Z,21.81
2022-08-30T01:43:36.772Z,21.77
2022-08-30T01:46:45.532Z,21.71
2022-08-30T01:49:48.283Z,21.60
2022-08-30T01:52:50.562Z,21.53
2022-08-30T01:55:52.970Z,21.44
2022-08-30T01:59:00.417Z,21.29
2022-08-30T02:02:06.078Z,21.23
2022-08-30T02:05:08.762Z,21.28
2022-08-30T02:08:11.007Z,21.35
2022-08-30T02:11:14.443Z,21.30
2022-08-30T02:14:16.584Z,21.26
2022-08-30T02:17:24.550Z,21.25
2022-08-30T02:20:26.799Z,21.17
2022-08-30T02:23:29.323Z,21.14
2022-08-30T02:26:32.090Z,21.10
2022-08-30T02:29:35.239Z,21.05
2022-08-30T02:32:37.334Z,21.05
2022-08-30T02:35:39.844Z,21.01
2022-08-30T02:38:42.076Z,20.99
2022-08-30T02:41:44.510Z,20.93
2022-08-30T02:44:46.652Z,20.93
2022-08-30T02:47:49.250Z,20.88
2022-08-30T02:50:53.551Z,20.90
2022-08-30T02:53:56.111Z,20.87
2022-08-30T02:56:58.274Z,20.86
2022-08-30T03:00:01.751Z,20.83
2022-08-30T03:03:04.793Z,20.79
2022-08-30T03:06:07.510Z,20.83
2022-08-30T03:09:09.651Z,20.76
2022-08-30T03:12:13.230Z,20.72
2022-08-30T03:15:16.624Z,20.71
2022-08-30T03:18:20.682Z,20.67
2022-08-30T03:21:22.843Z,20.72
2022-08-30T03:24:25.941Z,20.72
2022-08-30T03:27:29.274Z,20.73
2022-08-30T03:30:32.035Z,20.71
2022-08-30T03:33:34.674Z,20.66
2022-08-30T03:36:38.686Z,20.65
2022-08-30T03:39:41.040Z,20.65
2022-08-30T03:42:44.388Z,20.67
2022-08-30T03:45:46.650Z,20.61
2022-08-30T03:48:49.144Z,20.54
2022-08-30T03:51:51.427Z,20.50
2022-08-30T03:54:53.812Z,20.49
2022-08-30T03:57:56.722Z,20.41
2022-08-30T04:01:00.409Z,20.40
2022-08-30T04:04:03.225Z,20.36
2022-08-30T04:07:05.951Z,20.32
2022-08-30T04:10:10.174Z,20.24
2022-08-30T04:13:12.403Z,20.21
2022-08-30T04:16:15.659Z,20.14
2022-08-30T04:19:18.749Z,20.10
2022-08-30T04:22:21.985Z,20.09
2022-08-30T04:25:24.080Z,20.04
2022-08-30T04:28:27.875Z,20.01
2022-08-30T04:31:31.298Z,20.03
2022-08-30T04:34:33.817Z,20.01
2022-08-30T04:37:38.033Z,19.96
2022-08-30T04:40:45.741Z,19.98
2022-08-30T04:43:50.439Z,20.05
2022-08-30T04:46:53.791Z,20.12
2022-08-30T04:49:56.126Z,20.19
2022-08-30T04:52:58.503Z,20.24
2022-08-30T04:56:00.676Z,20.34
2022-08-30T04:59:04.180Z,20.40
2022-08-30T05:02:06.331Z,20.46
2022-08-30T05:05:28.236Z,20.55
2022-08-30T05:08:30.385Z,20.58
2022-08-30T05:11:33.260Z,20.67
2022-08-30T05:14:35.354Z,20.76
2022-08-30T05:17:39.138Z,20.88
2022-08-30T05:20:41.996Z,20.96
2022-08-30T05:23:44.607Z,21.03
2022-08-30T05:29:55.688Z,21.17
2022-08-30T05:32:58.038Z,21.23
2022-08-30T05:36:00.433Z,21.28
2022-08-30T05:39:05.679Z,21.36
2022-08-30T05:42:08.412Z,21.40
2022-08-30T05:45:11.563Z,21.44
2022-08-30T05:48:14.034Z,21.50
2022-08-30T05:51:22.313Z,21.54
2022-08-30T05:54:24.836Z,21.56
2022-08-30T05:57:27.030Z,21.55
2022-08-30T06:00:30.953Z,21.61
2022-08-30T06:03:34.358Z,21.63
2022-08-30T06:06:38.941Z,21.56
2022-08-30T06:09:41.446Z,21.55
2022-08-30T06:12:43.618Z,21.59
2022-08-30T06:15:46.258Z,21.57
2022-08-30T06:18:48.801Z,21.64
2022-08-30T06:21:51.667Z,21.60
2022-08-30T06:24:57.502Z,21.67
2022-08-30T06:28:00.520Z,21.72
2022-08-30T06:31:06.576Z,21.77
2022-08-30T06:34:09.048Z,21.87
2022-08-30T06:37:11.151Z,21.95
2022-08-30T06:40:14.261Z,21.94
2022-08-30T06:43:16.398Z,22.02
2022-08-30T06:46:27.992Z,22.00
2022-08-30T06:49:30.155Z,22.07
2022-08-30T06:52:32.551Z,22.14
2022-08-30T06:55:34.990Z,22.18
2022-08-30T06:58:39.393Z,22.17
2022-08-30T07:01:41.774Z,22.23
2022-08-30T07:04:44.251Z,22.25
2022-08-30T07:07:46.371Z,22.24
2022-08-30T07:10:49.859Z,22.34
2022-08-30T07:13:51.975Z,22.52
2022-08-30T07:16:54.355Z,22.75
2022-08-30T07:19:56.454Z,22.98
2022-08-30T07:22:59.086Z,23.13
2022-08-30T07:26:08.226Z,23.25
2022-08-30T07:29:10.646Z,23.37
2022-08-30T07:32:12.754Z,23.55
2022-08-30T07:35:15.621Z,23.68
2022-08-30T07:38:18.297Z,23.93
2022-08-30T07:41:25.383Z,24.21
2022-08-30T07:44:27.822Z,24.41
2022-08-30T07:47:30.336Z,24.61
2022-08-30T07:50:32.693Z,24.55
2022-08-30T07:53:35.113Z,24.55
2022-08-30T07:56:37.907Z,24.62
2022-08-30T07:59:40.301Z,24.57
2022-08-30T08:02:42.555Z,24.54
2022-08-30T08:05:46.110Z,24.55
2022-08-30T08:08:48.768Z,24.67
2022-08-30T08:11:51.171Z,24.69
2022-08-30T08:14:53.794Z,24.96
2022-08-30T08:17:56.308Z,25.11
2022-08-30T08:20:59.968Z,25.26
2022-08-30T08:24:03.079Z,25.30
2022-08-30T08:27:05.425Z,25.22
2022-08-30T08:30:08.305Z,25.07
2022-08-30T08:33:13.024Z,25.11
2022-08-30T08:36:16.297Z,25.04
2022-08-30T08:39:18.530Z,25.28
2022-08-30T08:42:39.285Z,25.43
2022-08-30T08:46:17.018Z,25.59
2022-08-30T08:49:19.544Z,25.72
2022-08-30T08:53:06.988Z,25.77
2022-08-30T08:56:15.588Z,26.05
2022-08-30T08:59:18.200Z,26.34
2022-08-30T09:02:27.110Z,26.52
2022-08-30T09:05:35.615Z,26.95
2022-08-30T09:08:38.142Z,27.22
2022-08-30T09:11:42.138Z,27.93
2022-08-30T09:14:55.373Z,28.70
2022-08-30T09:18:04.194Z,28.43
2022-08-30T09:21:08.947Z,28.92
2022-08-30T09:24:15.294Z,29.09
2022-08-30T09:27:36.165Z,29.34
2022-08-30T09:30:39.322Z,29.14
2022-08-30T09:33:54.479Z,28.57
2022-08-30T09:36:56.684Z,28.46
2022-08-30T09:40:00.180Z,28.33
2022-08-30T09:43:17.794Z,28.48
2022-08-30T09:46:24.361Z,28.84
2022-08-30T09:49:39.853Z,28.86
2022-08-30T09:52:55.184Z,29.20
2022-08-30T09:56:06.318Z,29.31
2022-08-30T09:59:39.812Z,29.58
2022-08-30T10:02:56.634Z,29.77
2022-08-30T10:06:10.805Z,29.60
2022-08-30T10:09:22.724Z,28.99
2022-08-30T10:12:32.897Z,28.64
2022-08-30T10:15:38.095Z,28.53
2022-08-30T10:18:56.230Z,28.37
2022-08-30T10:22:09.255Z,27.94
2022-08-30T10:25:16.277Z,27.82
2022-08-30T10:28:40.412Z,27.80
2022-08-30T10:32:28.343Z,27.78
2022-08-30T10:35:39.772Z,27.75
2022-08-30T10:38:52.422Z,27.66
2022-08-30T10:42:09.773Z,27.87
2022-08-30T10:45:16.742Z,28.13
2022-08-30T10:48:27.122Z,28.47
2022-08-30T10:51:36.684Z,28.46
2022-08-30T10:54:46.589Z,28.69
2022-08-30T10:57:51.167Z,28.69
2022-08-30T11:01:19.213Z,28.75
2022-08-30T11:04:31.817Z,28.88
2022-08-30T11:07:46.150Z,28.82
2022-08-30T11:11:26.060Z,28.83
2022-08-30T11:14:29.583Z,28.82
2022-08-30T11:17:45.359Z,28.76
2022-08-30T11:20:51.222Z,28.93
2022-08-30T11:24:13.504Z,28.90
2022-08-30T11:27:41.513Z,28.76
2022-08-30T11:30:43.947Z,28.99
2022-08-30T11:33:49.310Z,29.03
2022-08-30T11:36:51.578Z,28.98
2022-08-30T11:39:55.084Z,29.00
2022-08-30T11:42:57.463Z,29.10
2022-08-30T11:46:16.354Z,29.25
2022-08-30T11:49:19.141Z,29.13
2022-08-30T11:52:41.006Z,29.29
2022-08-30T11:56:06.768Z,29.11
2022-08-30T11:59:44.977Z,29.20
2022-08-30T12:03:00.097Z,29.19
2022-08-30T12:06:08.301Z,29.27
2022-08-30T12:09:16.373Z,29.30
2022-08-30T12:12:46.539Z,29.38
2022-08-30T12:16:05.157Z,29.20
2022-08-30T12:19:20.034Z,29.33
2022-08-30T12:22:23.641Z,29.24
2022-08-30T12:25:31.566Z,29.25
2022-08-30T12:28:33.752Z,29.36
2022-08-30T12:31:47.930Z,29.42
2022-08-30T12:34:53.839Z,29.39
2022-08-30T12:38:07.145Z,29.49
2022-08-30T12:41:21.022Z,29.40
2022-08-30T12:44:30.216Z,29.31
2022-08-30T12:47:49.950Z,29.40
2022-08-30T12:50:53.927Z,29.36
2022-08-30T12:54:05.338Z,29.50
2022-08-30T12:57:25.619Z,29.55
2022-08-30T13:00:40.408Z,29.54
2022-08-30T13:03:43.203Z,29.48
2022-08-30T13:06:53.059Z,29.29
2022-08-30T13:10:14.193Z,29.01
2022-08-30T13:13:34.646Z,28.88
2022-08-30T13:16:40.331Z,28.79
2022-08-30T13:20:05.653Z,28.68
2022-08-30T13:23:10.140Z,28.50
2022-08-30T13:26:12.500Z,28.42
2022-08-30T13:29:19.002Z,28.63
2022-08-30T13:32:21.795Z,28.81
2022-08-30T13:35:24.830Z,29.01
2022-08-30T13:38:26.979Z,29.12
2022-08-30T13:41:34.121Z,29.16
2022-08-30T13:44:36.783Z,29.24
2022-08-30T13:47:46.740Z,29.08
2022-08-30T13:50:49.051Z,28.95
2022-08-30T13:53:52.649Z,28.97
2022-08-30T13:56:55.794Z,29.01
2022-08-30T13:59:58.937Z,28.99
2022-08-30T14:03:02.116Z,28.96
2022-08-30T14:06:31.688Z,28.91
2022-08-30T14:09:27.893Z,28.77
2022-08-30T14:16:26.836Z,28.53
2022-08-30T14:19:16.254Z,28.39
2022-08-30T14:22:20.635Z,28.25
2022-08-30T14:25:23.158Z,28.17
2022-08-30T14:28:28.437Z,28.13
2022-08-30T14:31:32.620Z,28.07
2022-08-30T14:34:35.821Z,28.00
2022-08-30T14:37:38.239Z,27.89
2022-08-30T14:40:41.689Z,27.86
2022-08-30T14:43:44.244Z,27.82
2022-08-30T14:46:48.058Z,27.70
2022-08-30T14:49:50.489Z,27.73
2022-08-30T14:52:52.755Z,27.75
2022-08-30T14:55:55.148Z,27.75
2022-08-30T14:59:02.731Z,27.74
2022-08-30T15:02:05.695Z,27.70
2022-08-30T15:05:08.490Z,27.69
2022-08-30T15:08:11.022Z,27.76
2022-08-30T15:11:15.621Z,27.87
2022-08-30T15:14:18.007Z,27.82
2022-08-30T15:17:20.216Z,27.76
2022-08-30T15:20:22.637Z,27.75
2022-08-30T15:23:25.075Z,27.64
2022-08-30T15:26:28.257Z,27.64
2022-08-30T15:29:31.790Z,27.67
2022-08-30T15:32:34.500Z,27.67
2022-08-30T15:35:36.713Z,27.69
2022-08-30T15:38:39.534Z,27.68
2022-08-30T15:41:44.382Z,27.63
2022-08-30T15:44:51.994Z,27.72
2022-08-30T15:47:54.137Z,27.75
2022-08-30T15:50:58.049Z,27.92
2022-08-30T15:54:00.275Z,27.93
2022-08-30T15:57:02.721Z,27.96
2022-08-30T16:00:10.050Z,28.02
2022-08-30T16:03:12.530Z,28.00
2022-08-30T16:06:17.620Z,28.12
2022-08-30T16:09:20.118Z,28.15
2022-08-30T16:12:23.728Z,28.21
2022-08-30T16:15:28.893Z,28.27
2022-08-30T16:18:31.457Z,28.20
2022-08-30T16:21:39.529Z,28.17
2022-08-30T16:24:43.637Z,28.14
2022-08-30T16:27:49.126Z,28.10
2022-08-30T16:30:51.655Z,28.02
2022-08-30T16:33:54.454Z,27.98
2022-08-30T16:36:56.680Z,27.97
2022-08-30T16:39:59.168Z,27.92
2022-08-30T16:43:03.824Z,27.90
2022-08-30T16:46:15.362Z,27.87
2022-08-30T16:49:18.095Z,27.88
2022-08-30T16:52:21.295Z,27.78
2022-08-30T16:55:23.567Z,27.72
2022-08-30T16:58:26.116Z,27.69
2022-08-30T17:01:29.083Z,27.69
2022-08-30T17:04:31.473Z,27.59
2022-08-30T17:07:33.988Z,27.57
2022-08-30T17:10:37.374Z,27.52
2022-08-30T17:13:39.609Z,27.54
2022-08-30T17:16:42.102Z,27.42
2022-08-30T17:19:44.527Z,27.30
2022-08-30T17:22:46.933Z,27.18
2022-08-30T17:25:49.366Z,27.13
2022-08-30T17:28:51.919Z,27.01
2022-08-30T17:31:54.404Z,26.94
2022-08-30T17:34:56.977Z,26.93
2022-08-30T17:37:59.088Z,26.90
2022-08-30T17:41:07.636Z,26.77
2022-08-30T17:44:10.234Z,26.68
2022-08-30T17:47:12.867Z,26.63
2022-08-30T17:50:15.316Z,26.50
2022-08-30T17:53:21.959Z,26.43
2022-08-30T17:56:34.137Z,26.31
2022-08-30T17:59:38.139Z,26.27
2022-08-30T18:02:41.555Z,26.19
2022-08-30T18:05:46.883Z,26.09
2022-08-30T18:08:49.211Z,25.97
2022-08-30T18:11:56.494Z,25.88
2022-08-30T18:14:58.827Z,25.83
2022-08-30T18:18:01.262Z,25.73
2022-08-30T18:21:13.178Z,25.61
2022-08-30T18:24:16.221Z,25.61
2022-08-30T18:27:18.637Z,25.56
2022-08-30T18:30:21.086Z,25.47
2022-08-30T18:33:25.649Z,25.44
2022-08-30T18:36:28.915Z,25.38
2022-08-30T18:39:34.708Z,25.30
2022-08-30T18:42:37.591Z,25.21
2022-08-30T18:45:45.132Z,25.10
2022-08-30T18:48:48.698Z,25.05
2022-08-30T18:51:51.241Z,25.07
2022-08-30T18:54:54.383Z,25.02
2022-08-30T18:58:02.576Z,25.02
2022-08-30T19:01:05.296Z,25.02
2022-08-30T19:04:07.796Z,24.96
2022-08-30T19:07:12.707Z,24.89
2022-08-30T19:10:21.094Z,24.85
2022-08-30T19:13:23.758Z,24.82
2022-08-30T19:16:26.235Z,24.72
2022-08-30T19:19:28.694Z,24.66
2022-08-30T19:23:03.469Z,24.56
2022-08-30T19:25:54.289Z,24.44
2022-08-30T19:28:56.723Z,24.33
2022-08-30T19:31:59.122Z,24.29
2022-08-30T19:35:01.678Z,24.23
2022-08-30T19:38:05.100Z,24.14
2022-08-30T19:41:07.682Z,24.12
2022-08-30T19:44:10.538Z,24.00
2022-08-30T19:47:12.698Z,23.89
2022-08-30T19:50:16.391Z,23.75
2022-08-30T19:53:19.128Z,23.64
2022-08-30T19:56:23.459Z,23.55
2022-08-30T19:59:25.607Z,23.49
2022-08-30T20:02:28.042Z,23.49
2022-08-30T20:05:31.667Z,23.43
2022-08-30T20:08:33.976Z,23.37
2022-08-30T20:11:37.170Z,23.34
2022-08-30T20:14:39.285Z,23.32
2022-08-30T20:18:02.826Z,23.29
2022-08-30T20:21:06.290Z,23.24
2022-08-30T20:24:16.006Z,23.17
2022-08-30T20:27:18.247Z,23.15
2022-08-30T20:30:21.955Z,23.08
2022-08-30T20:33:25.551Z,23.03
2022-08-30T20:36:28.033Z,22.94
2022-08-30T20:39:30.248Z,22.80
2022-08-30T20:42:32.689Z,22.75
2022-08-30T20:45:34.858Z,22.70
2022-08-30T20:48:38.132Z,22.64
2022-08-30T20:51:40.936Z,22.58
2022-08-30T20:54:44.487Z,22.50
2022-08-30T20:57:47.170Z,22.47
2022-08-30T21:00:51.246Z,22.42
2022-08-30T21:03:54.456Z,22.40
2022-08-30T21:06:57.550Z,22.39
2022-08-30T21:09:59.754Z,22.35
2022-08-30T21:13:02.145Z,22.33
2022-08-30T21:16:04.922Z,22.23
2022-08-30T21:19:07.425Z,22.18
2022-08-30T21:22:10.433Z,22.20
2022-08-30T21:25:13.007Z,22.08
2022-08-30T21:28:15.635Z,22.08
2022-08-30T21:31:26.742Z,22.00
2022-08-30T21:34:28.907Z,21.93
2022-08-30T21:37:35.909Z,21.90
2022-08-30T21:40:38.395Z,21.84
2022-08-30T21:43:41.146Z,21.75
2022-08-30T21:46:44.634Z,21.71
2022-08-30T21:49:47.012Z,21.60
2022-08-30T21:52:49.206Z,21.60
2022-08-30T21:55:51.662Z,21.60
2022-08-30T21:58:55.496Z,21.53
2022-08-30T22:01:59.151Z,21.44
2022-08-30T22:05:01.723Z,21.43
2022-08-30T22:08:04.239Z,21.48
2022-08-30T22:11:08.391Z,21.44
2022-08-30T22:14:11.338Z,21.38
2022-08-30T22:17:14.338Z,21.36
2022-08-30T22:20:18.726Z,21.34
2022-08-30T22:23:21.915Z,21.30
2022-08-30T22:26:25.332Z,21.28
2022-08-30T22:32:30.107Z,21.18
2022-08-30T22:35:35.469Z,21.14
2022-08-30T22:38:37.639Z,21.05
2022-08-30T22:41:41.335Z,21.05
2022-08-30T22:44:43.460Z,20.97
2022-08-30T22:47:45.938Z,20.91
2022-08-30T22:50:48.058Z,20.86
2022-08-30T22:53:50.680Z,20.86
2022-08-30T22:56:52.797Z,20.92
2022-08-30T22:59:55.577Z,20.91
2022-08-30T23:02:57.729Z,20.91
2022-08-30T23:06:00.109Z,20.85
2022-08-30T23:09:03.706Z,20.81
2022-08-30T23:12:06.326Z,20.77
2022-08-30T23:15:12.042Z,20.77
2022-08-30T23:18:14.408Z,20.78
2022-08-30T23:21:23.168Z,20.79
2022-08-30T23:24:46.203Z,20.86
2022-08-30T23:28:10.145Z,20.94
2022-08-30T23:31:36.094Z,21.01
2022-08-30T23:34:57.118Z,21.13
2022-08-30T23:38:20.949Z,21.05
2022-08-30T23:41:41.784Z,21.01
2022-08-30T23:45:02.687Z,20.98
2022-08-30T23:48:23.521Z,20.95
2022-08-30T23:51:44.392Z,20.96
2022-08-30T23:55:05.264Z,20.92
2022-08-30T23:58:26.705Z,20.93
